Time;durP1;ratioP1;P1;durP2;ratioP2;P2;SDS_P1;SDS_P2;PMS_P1;PMS_P2;Temp;Humidity;BMP_temperature;BMP_pressure;BME280_temperature;BME280_humidity;BME280_pressure;Samples;Min_cycle;Max_cycle;Signal;HPM_P1;HPM_P2
2022/08/11 00:00:17;;;;;;;9.27;4.00;;;;;;;;;;5053025;28;20091;-72
2022/08/11 00:02:46;;;;;;;5.57;3.80;;;;;;;;;;5052846;28;20473;-72
2022/08/11 00:05:14;;;;;;;7.13;3.88;;;;;;;;;;5053140;28;20036;-72
2022/08/11 00:07:44;;;;;;;11.70;4.03;;;;;;;;;;5053336;28;20033;-73
2022/08/11 00:10:15;;;;;;;6.50;4.00;;;;;;;;;;5034910;28;20029;-72
2022/08/11 00:12:42;;;;;;;13.07;4.55;;;;;;;;;;5053304;28;20358;-72
2022/08/11 00:15:09;;;;;;;6.45;3.88;;;;;;;;;;5034884;28;20214;-71
2022/08/11 00:17:36;;;;;;;6.32;3.72;;;;;;;;;;5052924;28;20478;-71
2022/08/11 00:20:04;;;;;;;5.93;4.00;;;;;;;;;;5052725;28;20096;-72
2022/08/11 00:22:30;;;;;;;15.90;5.10;;;;;;;;;;5052666;28;20539;-72
2022/08/11 00:24:56;;;;;;;8.73;4.30;;;;;;;;;;5052691;28;20028;-71
2022/08/11 00:27:32;;;;;;;9.02;4.50;;;;;;;;;;5052906;28;20025;-73
2022/08/11 00:29:58;;;;;;;13.15;4.32;;;;;;;;;;5052929;28;20108;-70
2022/08/11 00:32:24;;;;;;;6.60;4.22;;;;;;;;;;5052625;28;20025;-71
2022/08/11 00:34:52;;;;;;;8.30;4.60;;;;;;;;;;5052595;28;20025;-72
2022/08/11 00:37:19;;;;;;;8.43;4.55;;;;;;;;;;5052494;28;20021;-72
2022/08/11 00:39:48;;;;;;;8.05;4.38;;;;;;;;;;5035843;28;20086;-72
2022/08/11 00:42:14;;;;;;;6.85;4.50;;;;;;;;;;5056493;28;20025;-72
2022/08/11 00:44:43;;;;;;;11.70;4.85;;;;;;;;;;5056437;28;20074;-72
2022/08/11 00:47:18;;;;;;;9.07;4.22;;;;;;;;;;5056155;28;20029;-71
2022/08/11 00:50:03;;;;;;;6.68;4.25;;;;;;;;;;5056332;28;20477;-73
2022/08/11 00:52:49;;;;;;;8.20;4.38;;;;;;;;;;5056051;28;20411;-72
2022/08/11 00:55:18;;;;;;;7.55;4.60;;;;;;;;;;5058793;28;20048;-71
2022/08/11 00:58:05;;;;;;;7.15;4.15;;;;;;;;;;5076123;28;20032;-71
2022/08/11 01:00:49;;;;;;;9.13;4.70;;;;;;;;;;5076242;28;20065;-72
2022/08/11 01:03:25;;;;;;;9.48;4.90;;;;;;;;;;5076449;28;20031;-71
2022/08/11 01:05:51;;;;;;;10.23;5.03;;;;;;;;;;5076676;28;20036;-72
2022/08/11 01:08:35;;;;;;;6.82;4.30;;;;;;;;;;5075766;28;20469;-72
2022/08/11 01:11:13;;;;;;;7.13;4.97;;;;;;;;;;5076287;28;20488;-71
2022/08/11 01:13:42;;;;;;;9.85;4.57;;;;;;;;;;5074449;28;20024;-71
2022/08/11 01:16:11;;;;;;;8.68;4.90;;;;;;;;;;5074351;28;20040;-72
2022/08/11 01:18:53;;;;;;;8.32;4.65;;;;;;;;;;5075714;28;20021;-71
2022/08/11 01:21:22;;;;;;;9.93;5.72;;;;;;;;;;5074261;28;20029;-71
2022/08/11 01:24:04;;;;;;;11.68;5.10;;;;;;;;;;5074155;28;20028;-70
2022/08/11 01:26:49;;;;;;;11.30;5.25;;;;;;;;;;5075960;28;20024;-71
2022/08/11 01:29:34;;;;;;;10.55;5.30;;;;;;;;;;5073817;28;20031;-72
2022/08/11 01:32:10;;;;;;;12.15;5.03;;;;;;;;;;5075606;28;20024;-72
2022/08/11 01:34:51;;;;;;;7.70;5.57;;;;;;;;;;5075331;28;20027;-71
2022/08/11 01:37:52;;;;;;;5.88;4.63;;;;;;;;;;5075475;28;20430;-72
2022/08/11 01:40:37;;;;;;;8.57;5.30;;;;;;;;;;5075739;28;20079;-72
2022/08/11 01:46:06;;;;;;;8.18;5.22;;;;;;;;;;5075380;28;20039;-72
2022/08/11 01:48:41;;;;;;;6.65;4.97;;;;;;;;;;5074994;28;20067;-71
2022/08/11 01:51:19;;;;;;;6.22;5.10;;;;;;;;;;5073975;28;20445;-73
2022/08/11 01:54:02;;;;;;;10.32;5.78;;;;;;;;;;5070185;28;20032;-71
2022/08/11 01:56:52;;;;;;;6.95;5.18;;;;;;;;;;5055437;28;20040;-70
2022/08/11 01:59:18;;;;;;;7.30;4.72;;;;;;;;;;5049162;28;20047;-72
2022/08/11 02:02:04;;;;;;;9.93;5.45;;;;;;;;;;5054701;28;20021;-72
2022/08/11 02:04:41;;;;;;;6.97;4.90;;;;;;;;;;5054595;28;20389;-71
2022/08/11 02:07:10;;;;;;;9.60;5.53;;;;;;;;;;5055741;28;20024;-71
2022/08/11 02:09:42;;;;;;;7.95;5.20;;;;;;;;;;5054863;28;20543;-72
2022/08/11 02:12:26;;;;;;;7.25;4.82;;;;;;;;;;5054833;28;20033;-70
2022/08/11 02:15:01;;;;;;;9.02;5.10;;;;;;;;;;5054522;28;20453;-71
2022/08/11 02:17:41;;;;;;;7.82;5.45;;;;;;;;;;5054421;28;20021;-71
2022/08/11 02:25:57;;;;;;;7.90;5.32;;;;;;;;;;5054363;28;20070;-71
2022/08/11 02:28:36;;;;;;;7.60;5.32;;;;;;;;;;5054824;28;20106;-70
2022/08/11 02:34:11;;;;;;;7.60;5.50;;;;;;;;;;5054458;28;20067;-72
2022/08/11 02:36:57;;;;;;;9.63;5.68;;;;;;;;;;5054698;28;20021;-71
2022/08/11 02:39:27;;;;;;;7.82;5.53;;;;;;;;;;5033054;28;20041;-70
2022/08/11 02:45:01;;;;;;;8.93;5.95;;;;;;;;;;5054584;28;20619;-71
2022/08/11 02:47:27;;;;;;;10.38;5.90;;;;;;;;;;5035992;28;20025;-72
2022/08/11 02:50:00;;;;;;;8.60;6.38;;;;;;;;;;5054101;28;20024;-71
2022/08/11 02:52:35;;;;;;;7.75;5.90;;;;;;;;;;5054114;28;20501;-72
2022/08/11 02:55:01;;;;;;;7.82;5.50;;;;;;;;;;5053561;28;20049;-71
2022/08/11 02:57:28;;;;;;;7.00;5.10;;;;;;;;;;5053629;28;20032;-72
2022/08/11 03:00:08;;;;;;;8.98;5.10;;;;;;;;;;5035633;28;20025;-71
2022/08/11 03:02:52;;;;;;;10.68;6.05;;;;;;;;;;5053772;28;20029;-72
2022/08/11 03:05:21;;;;;;;7.93;5.65;;;;;;;;;;5054094;28;20025;-72
2022/08/11 03:07:51;;;;;;;8.98;5.35;;;;;;;;;;5054594;28;20108;-72
2022/08/11 03:10:23;;;;;;;8.60;5.38;;;;;;;;;;5035704;28;20025;-71
2022/08/11 03:19:22;;;;;;;7.78;6.28;;;;;;;;;;5053730;28;20059;-71
2022/08/11 03:21:55;;;;;;;10.68;6.68;;;;;;;;;;5051461;28;20064;-71
2022/08/11 03:24:25;;;;;;;8.30;5.45;;;;;;;;;;5053608;28;20025;-71
2022/08/11 03:27:00;;;;;;;7.22;5.43;;;;;;;;;;5053553;28;20074;-72
2022/08/11 03:29:50;;;;;;;10.55;5.88;;;;;;;;;;5053545;28;20028;-72
2022/08/11 03:32:31;;;;;;;8.18;5.28;;;;;;;;;;5047702;28;20037;-71
2022/08/11 03:35:01;;;;;;;7.55;5.75;;;;;;;;;;5053210;28;20063;-72
2022/08/11 03:41:41;;;;;;;7.63;5.70;;;;;;;;;;5052891;28;19958;-71
2022/08/11 03:43:25;;;;;;;12.48;6.45;;;;;;;;;;5052718;28;20115;-72
2022/08/11 03:46:03;;;;;;;7.78;6.32;;;;;;;;;;5032413;28;20432;-71
2022/08/11 03:48:32;;;;;;;7.57;6.30;;;;;;;;;;5053597;28;20037;-71
2022/08/11 03:51:04;;;;;;;9.02;6.18;;;;;;;;;;5053034;28;20099;-70
2022/08/11 03:53:30;;;;;;;9.18;5.97;;;;;;;;;;5052788;28;20033;-72
2022/08/11 03:55:56;;;;;;;7.32;5.82;;;;;;;;;;5053288;28;20585;-71
2022/08/11 03:58:23;;;;;;;9.20;6.07;;;;;;;;;;5053132;28;20036;-73
2022/08/11 04:00:55;;;;;;;8.63;5.90;;;;;;;;;;5052859;28;20492;-71
2022/08/11 04:03:24;;;;;;;8.48;5.93;;;;;;;;;;5052936;28;20059;-73
2022/08/11 04:06:10;;;;;;;10.38;6.55;;;;;;;;;;5035056;28;20439;-72
2022/08/11 04:08:54;;;;;;;7.47;5.90;;;;;;;;;;5052864;28;20032;-70
2022/08/11 04:11:35;;;;;;;9.68;6.55;;;;;;;;;;5053394;28;20108;-71
2022/08/11 04:17:25;;;;;;;9.90;6.00;;;;;;;;;;5025849;28;20090;-70
2022/08/11 04:19:51;;;;;;;10.20;6.03;;;;;;;;;;5056760;28;20527;-72
2022/08/11 04:22:20;;;;;;;9.63;6.50;;;;;;;;;;5056935;28;20059;-71
2022/08/11 04:24:46;;;;;;;8.85;5.95;;;;;;;;;;5056646;28;20135;-71
2022/08/11 04:27:25;;;;;;;9.35;5.75;;;;;;;;;;5056582;28;20025;-71
2022/08/11 04:30:11;;;;;;;10.55;6.15;;;;;;;;;;5056742;28;20029;-70
2022/08/11 04:32:49;;;;;;;13.38;6.75;;;;;;;;;;5056459;28;20082;-71
2022/08/11 04:35:24;;;;;;;8.65;6.60;;;;;;;;;;5056372;28;20049;-72
2022/08/11 04:38:09;;;;;;;11.50;6.65;;;;;;;;;;5056606;28;20021;-72
2022/08/11 04:40:54;;;;;;;12.90;7.07;;;;;;;;;;5056578;28;20393;-71
2022/08/11 04:43:39;;;;;;;8.73;6.05;;;;;;;;;;5056853;28;20112;-71
2022/08/11 04:46:09;;;;;;;10.20;6.68;;;;;;;;;;5038276;28;20036;-71
2022/08/11 05:03:21;;;;;;;8.35;6.50;;;;;;;;;;5076245;28;20058;-71
2022/08/11 05:06:19;;;;;;;9.45;6.07;;;;;;;;;;5076158;28;20032;-71
2022/08/11 05:08:54;;;;;;;9.27;6.10;;;;;;;;;;5031637;28;20107;-73
2022/08/11 05:11:26;;;;;;;10.00;6.30;;;;;;;;;;5075719;28;20103;-71
2022/08/11 05:36:49;;;;;;;11.03;6.97;;;;;;;;;;5075344;28;20085;-71
2022/08/11 05:58:43;;;;;;;9.70;6.90;;;;;;;;;;5074715;28;20413;-70
2022/08/11 06:01:13;;;;;;;11.30;7.13;;;;;;;;;;5074696;28;20467;-71
2022/08/11 06:06:29;;;;;;;10.85;7.03;;;;;;;;;;5075279;28;20031;-71
2022/08/11 06:08:56;;;;;;;10.45;7.03;;;;;;;;;;5075243;28;20033;-71
2022/08/11 06:11:23;;;;;;;11.55;6.28;;;;;;;;;;5074586;28;20492;-72
2022/08/11 06:13:49;;;;;;;7.75;6.32;;;;;;;;;;5074808;28;20033;-72
2022/08/11 06:16:21;;;;;;;10.98;6.88;;;;;;;;;;5074482;28;20476;-71
2022/08/11 06:18:47;;;;;;;10.95;6.53;;;;;;;;;;5074672;28;20473;-72
2022/08/11 06:21:14;;;;;;;13.32;7.25;;;;;;;;;;5074660;28;20020;-70
2022/08/11 06:23:42;;;;;;;10.25;6.38;;;;;;;;;;5074346;28;20024;-71
2022/08/11 06:26:09;;;;;;;7.82;6.22;;;;;;;;;;5073041;28;20029;-72
2022/08/11 06:28:36;;;;;;;7.85;5.80;;;;;;;;;;5074254;28;20028;-72
2022/08/11 06:31:16;;;;;;;8.05;5.13;;;;;;;;;;5074163;28;20025;-72
2022/08/11 06:33:52;;;;;;;15.27;5.20;;;;;;;;;;5074694;28;20460;-72
2022/08/11 06:36:27;;;;;;;16.77;9.80;;;;;;;;;;5074711;28;20186;-72
2022/08/11 06:38:58;;;;;;;8.38;5.47;;;;;;;;;;5073859;28;20029;-72
2022/08/11 06:41:29;;;;;;;8.02;4.85;;;;;;;;;;5074318;28;20021;-71
2022/08/11 06:44:13;;;;;;;6.95;4.82;;;;;;;;;;5074543;28;20027;-72
2022/08/11 06:46:42;;;;;;;8.48;4.60;;;;;;;;;;5074166;28;20024;-71
2022/08/11 06:51:10;;;;;;;74.57;13.35;;;;;;;;;;5073876;28;20392;-70
2022/08/11 06:51:58;;;;;;;10.43;4.72;;;;;;;;;;5073463;28;20036;-71
2022/08/11 06:54:25;;;;;;;8.35;5.28;;;;;;;;;;5063482;28;20079;-73
2022/08/11 07:02:32;;;;;;;8.60;4.70;;;;;;;;;;5053498;28;20408;-72
2022/08/11 07:05:07;;;;;;;7.00;4.35;;;;;;;;;;5053934;28;20017;-72
2022/08/11 07:16:24;;;;;;;6.10;4.47;;;;;;;;;;5054045;28;20440;-73
2022/08/11 07:30:00;;;;;;;10.82;5.72;;;;;;;;;;5053874;28;20516;-73
2022/08/11 07:32:28;;;;;;;11.65;4.72;;;;;;;;;;5053191;28;20401;-71
2022/08/11 07:35:13;;;;;;;11.07;4.50;;;;;;;;;;5053204;28;20082;-71
2022/08/11 07:37:46;;;;;;;7.95;4.60;;;;;;;;;;5053736;28;20036;-71
2022/08/11 07:40:12;;;;;;;6.25;4.05;;;;;;;;;;5053745;28;20017;-73
2022/08/11 07:42:40;;;;;;;7.80;4.60;;;;;;;;;;5053143;28;20021;-71
2022/08/11 07:53:28;;;;;;;8.30;4.35;;;;;;;;;;5057295;28;20124;-72
2022/08/11 07:55:55;;;;;;;8.07;4.47;;;;;;;;;;5057710;28;20020;-72
2022/08/11 08:17:55;;;;;;;4.85;3.53;;;;;;;;;;5057051;28;20036;-71
2022/08/11 08:20:23;;;;;;;7.68;3.90;;;;;;;;;;5057346;28;20025;-71
2022/08/11 08:22:55;;;;;;;6.32;3.47;;;;;;;;;;5056664;28;20029;-72
2022/08/11 08:25:23;;;;;;;6.68;3.33;;;;;;;;;;5056577;28;20393;-71
2022/08/11 08:27:50;;;;;;;9.93;3.72;;;;;;;;;;5038679;28;20032;-73
2022/08/11 08:33:02;;;;;;;9.02;3.50;;;;;;;;;;5056786;28;20036;-73
2022/08/11 08:35:31;;;;;;;5.07;3.00;;;;;;;;;;5056431;28;20367;-72
2022/08/11 08:38:01;;;;;;;6.15;3.28;;;;;;;;;;5056305;28;20025;-73
2022/08/11 08:40:27;;;;;;;7.68;3.30;;;;;;;;;;5056393;28;20017;-71
2022/08/11 08:42:55;;;;;;;5.32;2.90;;;;;;;;;;5056868;28;20074;-73
2022/08/11 08:45:22;;;;;;;4.80;2.80;;;;;;;;;;5056225;28;20025;-71
2022/08/11 08:47:54;;;;;;;4.25;2.60;;;;;;;;;;5056199;28;20025;-71
2022/08/11 08:50:22;;;;;;;3.78;2.63;;;;;;;;;;5056149;28;20025;-71
2022/08/11 08:53:08;;;;;;;6.43;2.70;;;;;;;;;;5038303;28;20381;-72
2022/08/11 08:55:34;;;;;;;6.78;3.03;;;;;;;;;;5055637;28;20103;-72
2022/08/11 08:58:00;;;;;;;4.53;2.60;;;;;;;;;;5038051;28;20033;-71
2022/08/11 09:00:37;;;;;;;4.15;2.67;;;;;;;;;;5055469;28;20096;-72
2022/08/11 09:03:03;;;;;;;7.28;2.80;;;;;;;;;;5056241;28;20025;-72
2022/08/11 09:05:29;;;;;;;4.93;2.50;;;;;;;;;;5056145;28;20025;-72
2022/08/11 09:07:56;;;;;;;5.85;2.95;;;;;;;;;;5056382;28;20032;-72
2022/08/11 09:10:23;;;;;;;5.43;2.97;;;;;;;;;;5037959;28;20025;-72
2022/08/11 09:12:50;;;;;;;8.25;2.95;;;;;;;;;;5055796;28;20055;-71
2022/08/11 09:15:17;;;;;;;5.20;2.38;;;;;;;;;;5055751;28;20017;-72
2022/08/11 09:17:45;;;;;;;6.03;2.70;;;;;;;;;;5055836;28;20556;-70
2022/08/11 09:20:13;;;;;;;6.88;2.65;;;;;;;;;;5037632;28;20020;-72
2022/08/11 09:28:15;;;;;;;5.22;2.55;;;;;;;;;;5055535;28;20074;-71
2022/08/11 09:30:42;;;;;;;6.90;2.47;;;;;;;;;;5055428;28;20029;-71
2022/08/11 09:33:10;;;;;;;4.63;2.30;;;;;;;;;;5055629;28;20539;-71
2022/08/11 09:35:37;;;;;;;5.82;2.67;;;;;;;;;;5055617;28;20017;-72
2022/08/11 09:40:50;;;;;;;4.32;2.08;;;;;;;;;;5055254;28;20032;-71
2022/08/11 09:46:02;;;;;;;7.90;2.60;;;;;;;;;;5055442;28;20044;-73
2022/08/11 09:48:34;;;;;;;4.13;2.20;;;;;;;;;;5055318;28;20388;-72
2022/08/11 09:51:01;;;;;;;8.52;2.42;;;;;;;;;;5055005;28;20535;-71
2022/08/11 09:53:30;;;;;;;7.03;2.50;;;;;;;;;;5054752;28;20393;-71
2022/08/11 09:55:56;;;;;;;5.57;2.15;;;;;;;;;;5054856;28;20036;-72
2022/08/11 09:58:23;;;;;;;6.22;2.15;;;;;;;;;;5054560;28;20392;-72
2022/08/11 10:00:50;;;;;;;9.60;2.45;;;;;;;;;;5036803;28;20095;-71
2022/08/11 10:03:23;;;;;;;5.38;2.22;;;;;;;;;;5054974;28;20470;-71
2022/08/11 10:08:41;;;;;;;8.02;2.38;;;;;;;;;;5055762;28;20059;-72
2022/08/11 10:11:09;;;;;;;6.78;2.60;;;;;;;;;;5054633;28;20035;-70
2022/08/11 10:15:32;;;;;;;8.25;2.47;;;;;;;;;;5053735;28;20025;-71
2022/08/11 10:16:25;;;;;;;6.85;2.78;;;;;;;;;;5054091;28;20090;-72
2022/08/11 10:18:52;;;;;;;8.23;2.20;;;;;;;;;;5054427;28;20033;-72
2022/08/11 10:21:29;;;;;;;4.90;2.40;;;;;;;;;;5036500;28;20017;-72
2022/08/11 10:26:53;;;;;;;4.03;2.30;;;;;;;;;;5054917;28;20036;-72
2022/08/11 10:34:50;;;;;;;5.50;2.03;;;;;;;;;;5053929;28;20071;-72
2022/08/11 10:37:17;;;;;;;4.57;2.33;;;;;;;;;;5054114;28;20036;-72
2022/08/11 10:39:45;;;;;;;7.80;2.63;;;;;;;;;;5054015;28;20028;-71
2022/08/11 10:44:57;;;;;;;6.25;2.53;;;;;;;;;;5054322;28;20040;-71
2022/08/11 10:47:33;;;;;;;5.93;2.70;;;;;;;;;;5053938;28;20486;-72
2022/08/11 11:01:01;;;;;;;5.15;2.40;;;;;;;;;;5054369;28;20032;-72
2022/08/11 11:03:30;;;;;;;5.18;2.50;;;;;;;;;;5053631;28;20049;-71
2022/08/11 11:06:18;;;;;;;6.38;2.35;;;;;;;;;;5053680;28;20018;-72
2022/08/11 11:08:52;;;;;;;4.45;2.30;;;;;;;;;;5033606;28;20047;-71
2022/08/11 11:11:19;;;;;;;2.90;2.20;;;;;;;;;;5035411;28;20116;-72
2022/08/11 11:19:18;;;;;;;3.88;2.33;;;;;;;;;;5053323;28;20025;-71
2022/08/11 11:21:46;;;;;;;4.10;2.75;;;;;;;;;;5053944;28;20024;-71
2022/08/11 11:24:18;;;;;;;7.50;3.17;;;;;;;;;;5053227;28;20025;-72
2022/08/11 11:26:49;;;;;;;7.38;2.53;;;;;;;;;;5053574;28;20021;-72
2022/08/11 11:29:30;;;;;;;7.35;2.70;;;;;;;;;;5053331;28;20028;-71
2022/08/11 11:32:02;;;;;;;5.13;2.60;;;;;;;;;;5053815;28;20377;-71
2022/08/11 11:34:58;;;;;;;3.40;2.50;;;;;;;;;;5053244;28;20031;-71
2022/08/11 11:37:24;;;;;;;6.10;2.30;;;;;;;;;;5044464;28;20040;-72
2022/08/11 11:39:50;;;;;;;4.38;2.45;;;;;;;;;;5053404;28;20028;-72
2022/08/11 11:42:17;;;;;;;5.55;2.45;;;;;;;;;;5053133;28;20100;-71
2022/08/11 11:44:44;;;;;;;5.15;2.50;;;;;;;;;;5053191;28;20021;-71
2022/08/11 11:47:14;;;;;;;6.00;2.70;;;;;;;;;;5053387;28;20025;-72
2022/08/11 11:49:39;;;;;;;;;;;;;;;;;;5053507;28;20401;-71
2022/08/11 11:52:07;;;;;;;5.22;2.60;;;;;;;;;;5053607;28;19904;-71
2022/08/11 11:54:35;;;;;;;3.70;2.58;;;;;;;;;;5053017;28;20048;-71
2022/08/11 12:02:34;;;;;;;4.00;2.60;;;;;;;;;;5053238;28;20032;-74
2022/08/11 12:05:00;;;;;;;3.53;2.33;;;;;;;;;;5053106;28;20032;-76
2022/08/11 12:10:12;;;;;;;4.43;2.80;;;;;;;;;;5052639;28;20031;-73
2022/08/11 12:15:23;;;;;;;5.30;2.38;;;;;;;;;;5053160;28;20127;-74
2022/08/11 12:17:49;;;;;;;7.03;2.40;;;;;;;;;;5053007;28;20025;-74
2022/08/11 12:20:19;;;;;;;7.40;2.30;;;;;;;;;;5052774;28;20031;-74
2022/08/11 12:28:15;;;;;;;6.28;2.13;;;;;;;;;;5053253;28;20400;-75
2022/08/11 12:30:46;;;;;;;2.92;2.20;;;;;;;;;;5035141;28;20029;-76
2022/08/11 12:33:12;;;;;;;6.90;2.38;;;;;;;;;;5034796;28;20029;-79
2022/08/11 12:35:38;;;;;;;5.13;2.42;;;;;;;;;;5035729;28;20025;-77
2022/08/11 12:38:05;;;;;;;2.85;2.20;;;;;;;;;;5056336;28;20025;-74
2022/08/11 12:46:04;;;;;;;4.50;2.25;;;;;;;;;;5056735;28;20083;-80
2022/08/11 12:54:15;;;;;;;2.38;1.88;;;;;;;;;;5055857;28;20103;-77
2022/08/11 13:05:02;;;;;;;7.18;1.83;;;;;;;;;;5056158;28;20040;-75
2022/08/11 13:07:30;;;;;;;4.57;1.80;;;;;;;;;;5055851;28;20032;-76
2022/08/11 13:09:56;;;;;;;3.42;2.00;;;;;;;;;;5056278;28;20104;-76
2022/08/11 13:15:10;;;;;;;6.05;2.00;;;;;;;;;;5056275;28;20162;-75
2022/08/11 13:17:37;;;;;;;3.88;1.92;;;;;;;;;;5056140;28;20024;-81
2022/08/11 13:20:05;;;;;;;4.38;2.33;;;;;;;;;;5055584;28;20462;-77
2022/08/11 13:22:31;;;;;;;5.88;2.33;;;;;;;;;;5037744;28;20021;-71
2022/08/11 13:24:57;;;;;;;2.70;1.88;;;;;;;;;;5055567;28;20548;-77
2022/08/11 13:27:24;;;;;;;4.13;2.00;;;;;;;;;;5037579;28;20021;-73
2022/08/11 13:31:09;;;;;;;4.20;2.03;;;;;;;;;;5055710;28;20029;-82
2022/08/11 13:32:37;;;;;;;3.00;1.90;;;;;;;;;;5055028;28;20037;-76
2022/08/11 13:35:03;;;;;;;3.40;1.92;;;;;;;;;;5055637;28;20036;-76
2022/08/11 13:37:29;;;;;;;3.55;2.00;;;;;;;;;;5055250;28;20462;-75
2022/08/11 13:39:57;;;;;;;3.20;2.00;;;;;;;;;;5055472;28;20033;-74
2022/08/11 13:42:24;;;;;;;5.25;2.10;;;;;;;;;;5037370;28;20370;-74
2022/08/11 13:44:50;;;;;;;2.95;1.80;;;;;;;;;;5055431;28;20033;-76
2022/08/11 13:47:16;;;;;;;4.82;2.15;;;;;;;;;;5053792;28;20021;-79
2022/08/11 13:49:44;;;;;;;5.60;2.30;;;;;;;;;;5055067;28;20443;-71
2022/08/11 13:52:14;;;;;;;5.40;2.10;;;;;;;;;;5055259;28;20025;-76
2022/08/11 13:54:41;;;;;;;3.00;1.83;;;;;;;;;;5054750;28;20057;-81
2022/08/11 13:57:10;;;;;;;5.80;2.42;;;;;;;;;;5037084;28;20029;-77
2022/08/11 13:59:37;;;;;;;3.67;2.05;;;;;;;;;;5054754;28;20566;-74
2022/08/11 14:02:04;;;;;;;4.05;2.05;;;;;;;;;;5054409;28;20027;-78
2022/08/11 14:04:34;;;;;;;6.57;2.28;;;;;;;;;;5054605;28;20032;-77
2022/08/11 14:07:04;;;;;;;5.85;2.13;;;;;;;;;;5036495;28;20108;-70
2022/08/11 14:09:34;;;;;;;5.40;2.05;;;;;;;;;;5055421;28;20039;-74
2022/08/11 14:14:53;;;;;;;4.75;2.17;;;;;;;;;;5053754;28;20408;-79
2022/08/11 14:17:20;;;;;;;5.18;2.20;;;;;;;;;;5053907;28;20025;-79
2022/08/11 14:19:48;;;;;;;4.00;1.80;;;;;;;;;;5035962;28;20028;-77
2022/08/11 14:22:16;;;;;;;6.45;2.58;;;;;;;;;;5053943;28;20021;-78
2022/08/11 14:24:44;;;;;;;5.18;2.10;;;;;;;;;;5053899;28;20066;-76
2022/08/11 14:27:11;;;;;;;8.75;2.30;;;;;;;;;;5035281;28;20520;-77
2022/08/11 14:29:40;;;;;;;3.38;1.80;;;;;;;;;;5036442;28;20078;-73
2022/08/11 14:32:07;;;;;;;7.77;2.10;;;;;;;;;;5054517;28;20428;-76
2022/08/11 14:34:34;;;;;;;5.57;2.00;;;;;;;;;;5054705;28;20033;-81
2022/08/11 14:37:03;;;;;;;4.68;2.03;;;;;;;;;;5053304;28;20028;-85
2022/08/11 14:39:29;;;;;;;;;;;;;;;;;;5036659;28;20032;-82
2022/08/11 14:47:49;;;;;;;5.63;2.20;;;;;;;;;;4992351;28;20026;-75
2022/08/11 14:50:17;;;;;;;4.72;2.13;;;;;;;;;;4991775;28;20407;-72
2022/08/11 14:52:55;;;;;;;4.70;2.33;;;;;;;;;;5022968;28;20065;-75
2022/08/11 14:58:12;;;;;;;4.25;2.05;;;;;;;;;;5053659;28;20036;-75
2022/08/11 15:00:39;;;;;;;4.22;2.38;;;;;;;;;;5053766;28;20512;-79
2022/08/11 15:03:11;;;;;;;4.15;2.17;;;;;;;;;;5053743;28;20017;-76
2022/08/11 15:05:51;;;;;;;3.60;2.10;;;;;;;;;;5053774;28;20021;-77
2022/08/11 15:08:17;;;;;;;4.28;1.90;;;;;;;;;;5054115;28;20025;-77
2022/08/11 15:10:44;;;;;;;3.65;2.03;;;;;;;;;;5053627;28;20028;-77
2022/08/11 15:13:10;;;;;;;4.20;2.30;;;;;;;;;;5053437;28;20396;-77
2022/08/11 15:18:23;;;;;;;2.40;2.00;;;;;;;;;;5053781;28;20067;-74
2022/08/11 15:37:25;;;;;;;5.88;2.03;;;;;;;;;;5053975;28;20079;-71
2022/08/11 15:37:30;;;;;;;3.03;2.10;;;;;;;;;;5053183;28;20064;-83
2022/08/11 15:45:48;;;;;;;3.78;1.95;;;;;;;;;;5053531;28;20071;-76
2022/08/11 15:48:17;;;;;;;3.95;2.10;;;;;;;;;;5053142;28;20496;-71
2022/08/11 15:50:47;;;;;;;4.63;2.20;;;;;;;;;;5053067;28;20025;-71
2022/08/11 15:53:25;;;;;;;2.65;2.17;;;;;;;;;;5053327;28;20024;-70
2022/08/11 15:55:51;;;;;;;14.30;2.40;;;;;;;;;;5053623;28;20123;-78
2022/08/11 16:06:54;;;;;;;4.85;2.30;;;;;;;;;;5053324;28;20091;-71
2022/08/11 16:09:23;;;;;;;4.60;2.17;;;;;;;;;;5053679;28;20095;-73
2022/08/11 16:11:50;;;;;;;6.30;2.45;;;;;;;;;;5055912;28;20104;-76
2022/08/11 16:17:03;;;;;;;5.80;2.17;;;;;;;;;;5056607;28;20032;-76
2022/08/11 16:19:33;;;;;;;2.60;1.88;;;;;;;;;;5057050;28;20033;-76
2022/08/11 16:21:59;;;;;;;4.45;2.03;;;;;;;;;;5057053;28;20384;-77
2022/08/11 16:24:25;;;;;;;3.75;1.98;;;;;;;;;;5038758;28;20032;-76
2022/08/11 16:26:54;;;;;;;3.85;1.90;;;;;;;;;;5038668;28;20389;-73
2022/08/11 16:29:21;;;;;;;3.17;2.08;;;;;;;;;;5056666;28;20033;-74
2022/08/11 16:32:15;;;;;;;3.90;2.00;;;;;;;;;;5057043;28;20078;-74
2022/08/11 16:40:08;;;;;;;3.35;1.83;;;;;;;;;;5025390;28;20131;-77
2022/08/11 16:48:05;;;;;;;3.22;2.00;;;;;;;;;;5056570;28;20028;-74
2022/08/11 16:50:31;;;;;;;2.55;2.13;;;;;;;;;;5056793;28;20108;-74
2022/08/11 16:52:58;;;;;;;3.47;2.10;;;;;;;;;;5056182;28;20049;-74
2022/08/11 16:55:24;;;;;;;5.47;2.00;;;;;;;;;;5055743;28;20060;-74
2022/08/11 17:00:36;;;;;;;3.00;1.85;;;;;;;;;;5056251;28;20039;-74
2022/08/11 17:14:28;;;;;;;3.30;1.92;;;;;;;;;;5056160;28;20040;-74
2022/08/11 17:16:55;;;;;;;4.93;2.20;;;;;;;;;;5056092;28;20033;-74
2022/08/11 17:19:23;;;;;;;3.53;2.00;;;;;;;;;;5055639;28;20039;-74
2022/08/11 17:24:36;;;;;;;4.22;2.00;;;;;;;;;;5055945;28;20032;-74
2022/08/11 17:27:04;;;;;;;4.63;2.47;;;;;;;;;;5056105;28;20100;-75
2022/08/11 17:29:30;;;;;;;4.80;2.10;;;;;;;;;;5056048;28;20036;-74
2022/08/11 17:37:29;;;;;;;6.47;2.10;;;;;;;;;;5055386;28;20110;-75
2022/08/11 17:39:57;;;;;;;2.90;1.92;;;;;;;;;;5055730;28;20457;-74
2022/08/11 17:50:40;;;;;;;7.47;2.10;;;;;;;;;;5054912;28;20071;-74
2022/08/11 18:01:23;;;;;;;3.33;2.15;;;;;;;;;;5055236;28;20389;-74
2022/08/11 18:03:50;;;;;;;3.85;1.90;;;;;;;;;;5054846;28;20017;-75
2022/08/11 18:06:17;;;;;;;4.22;2.30;;;;;;;;;;5036946;28;20486;-74
